createdAt,value
2017-08-18T00:00:44.611Z,95.56
2017-08-18T00:03:13.178Z,95.57
2017-08-18T00:05:42.893Z,95.60
2017-08-18T00:08:14.103Z,95.65
2017-08-18T00:10:43.525Z,95.67
2017-08-18T00:13:12.928Z,95.66
2017-08-18T00:15:43.281Z,95.63
2017-08-18T00:18:12.033Z,95.64
2017-08-18T00:20:43.249Z,95.65
2017-08-18T00:23:12.640Z,95.69
2017-08-18T00:25:42.704Z,95.74
2017-08-18T00:28:12.638Z,95.77
2017-08-18T00:30:41.861Z,95.76
2017-08-18T00:33:10.972Z,95.75
2017-08-18T00:35:38.985Z,95.74
2017-08-18T00:38:07.151Z,95.78
2017-08-18T00:40:36.242Z,95.81
2017-08-18T00:43:06.811Z,95.80
2017-08-18T00:45:35.229Z,95.79
2017-08-18T00:48:03.100Z,95.77
2017-08-18T00:50:31.046Z,95.76
2017-08-18T00:53:36.706Z,95.75
2017-08-18T00:56:04.509Z,95.76
2017-08-18T00:58:32.343Z,95.76
2017-08-18T01:01:00.177Z,95.79
2017-08-18T01:03:27.964Z,95.85
2017-08-18T01:05:55.799Z,95.85
2017-08-18T01:08:23.652Z,95.87
2017-08-18T01:10:51.465Z,95.91
2017-08-18T01:13:19.318Z,95.94
2017-08-18T01:15:47.134Z,95.93
2017-08-18T01:18:14.871Z,95.92
2017-08-18T01:20:42.747Z,95.89
2017-08-18T01:23:10.544Z,95.84
2017-08-18T01:25:38.420Z,95.84
2017-08-18T01:28:06.267Z,95.81
2017-08-18T01:30:34.118Z,95.77
2017-08-18T01:33:01.887Z,95.86
2017-08-18T01:35:29.727Z,95.96
2017-08-18T01:37:57.531Z,96.06
2017-08-18T01:40:25.373Z,96.16
2017-08-18T01:42:53.186Z,96.37
2017-08-18T01:45:21.024Z,96.44
2017-08-18T01:47:48.801Z,96.54
2017-08-18T01:50:16.679Z,96.58
2017-08-18T01:52:44.480Z,96.63
2017-08-18T01:55:12.277Z,96.65
2017-08-18T01:57:40.146Z,96.71
2017-08-18T02:00:07.971Z,96.68
2017-08-18T02:02:35.804Z,96.63
2017-08-18T02:05:03.603Z,96.50
2017-08-18T02:07:31.460Z,96.29
2017-08-18T02:09:59.244Z,96.16
2017-08-18T02:12:27.091Z,96.31
2017-08-18T02:14:54.855Z,96.48
2017-08-18T02:17:22.571Z,96.60
2017-08-18T02:19:50.404Z,96.68
2017-08-18T02:22:18.199Z,96.74
2017-08-18T02:24:46.031Z,96.74
2017-08-18T02:27:13.864Z,96.84
2017-08-18T02:29:41.701Z,96.95
2017-08-18T02:32:09.532Z,97.06
2017-08-18T02:34:37.356Z,97.10
2017-08-18T02:37:05.141Z,97.10
2017-08-18T02:39:33.008Z,97.09
2017-08-18T02:42:00.726Z,97.05
2017-08-18T02:44:28.520Z,97.05
2017-08-18T02:46:56.370Z,97.00
2017-08-18T02:49:24.178Z,97.00
2017-08-18T02:51:52.025Z,97.05
2017-08-18T02:54:19.742Z,97.09
2017-08-18T02:56:47.578Z,97.08
2017-08-18T02:59:15.424Z,97.09
2017-08-18T03:01:43.246Z,97.09
2017-08-18T03:04:11.043Z,97.13
2017-08-18T03:06:38.884Z,97.14
2017-08-18T03:09:06.675Z,97.14
2017-08-18T03:11:34.544Z,97.11
2017-08-18T03:14:02.334Z,97.08
2017-08-18T03:16:30.143Z,97.14
2017-08-18T03:18:57.969Z,97.20
2017-08-18T03:21:25.798Z,97.19
2017-08-18T03:23:53.589Z,97.20
2017-08-18T03:26:21.391Z,97.22
2017-08-18T03:28:49.272Z,97.29
2017-08-18T03:31:17.057Z,97.35
2017-08-18T03:33:44.933Z,97.36
2017-08-18T03:36:12.734Z,97.35
2017-08-18T03:38:40.554Z,97.32
2017-08-18T03:41:08.352Z,97.39
2017-08-18T03:43:36.192Z,97.40
2017-08-18T03:46:03.993Z,97.41
2017-08-18T03:48:31.802Z,97.41
2017-08-18T03:50:59.631Z,97.44
2017-08-18T03:53:27.425Z,97.48
2017-08-18T03:55:55.291Z,97.53
2017-08-18T03:58:23.093Z,97.53
2017-08-18T04:00:50.929Z,97.54
2017-08-18T04:03:18.737Z,97.52
2017-08-18T04:05:46.568Z,97.49
2017-08-18T04:08:14.371Z,97.47
2017-08-18T04:10:42.250Z,97.46
2017-08-18T04:13:09.980Z,97.46
2017-08-18T04:15:37.809Z,97.45
2017-08-18T04:18:05.673Z,97.43
2017-08-18T04:20:33.497Z,97.41
2017-08-18T04:23:01.354Z,97.35
2017-08-18T04:25:29.197Z,97.29
2017-08-18T04:27:57.093Z,97.25
2017-08-18T04:30:24.905Z,97.25
2017-08-18T04:32:52.677Z,97.25
2017-08-18T04:35:20.452Z,97.25
2017-08-18T04:37:48.295Z,97.23
2017-08-18T04:40:16.085Z,97.22
2017-08-18T04:42:43.929Z,97.18
2017-08-18T04:45:11.730Z,97.11
2017-08-18T04:47:39.487Z,97.08
2017-08-18T04:50:07.317Z,97.05
2017-08-18T04:52:35.120Z,97.00
2017-08-18T04:55:02.988Z,96.94
2017-08-18T04:57:30.815Z,96.89
2017-08-18T04:59:58.696Z,96.84
2017-08-18T05:02:26.500Z,96.79
2017-08-18T05:04:54.415Z,96.71
2017-08-18T05:07:22.245Z,96.67
2017-08-18T05:09:50.086Z,96.63
2017-08-18T05:12:17.866Z,96.60
2017-08-18T05:14:45.713Z,96.55
2017-08-18T05:17:13.522Z,96.50
2017-08-18T05:19:41.390Z,96.44
2017-08-18T05:22:09.246Z,96.35
2017-08-18T05:24:37.047Z,96.25
2017-08-18T05:27:04.891Z,96.13
2017-08-18T05:29:32.790Z,95.94
2017-08-18T05:32:00.665Z,95.79
2017-08-18T05:34:28.485Z,95.58
2017-08-18T05:36:56.312Z,95.39
2017-08-18T05:39:24.118Z,95.26
2017-08-18T05:41:51.976Z,95.08
2017-08-18T05:44:19.776Z,94.95
2017-08-18T05:46:47.681Z,94.80
2017-08-18T05:49:15.521Z,94.52
2017-08-18T05:51:43.333Z,94.43
2017-08-18T05:54:11.179Z,94.23
2017-08-18T05:56:39.030Z,94.09
2017-08-18T05:59:06.892Z,93.67
2017-08-18T06:01:34.678Z,93.21
2017-08-18T06:04:02.576Z,92.97
2017-08-18T06:06:30.378Z,92.33
2017-08-18T06:08:58.265Z,92.18
2017-08-18T06:11:26.077Z,91.77
2017-08-18T06:13:53.949Z,91.93
2017-08-18T06:16:21.761Z,91.50
2017-08-18T06:18:49.639Z,91.31
2017-08-18T06:21:17.413Z,91.17
2017-08-18T06:23:45.305Z,90.80
2017-08-18T06:26:13.131Z,90.86
2017-08-18T06:28:41.003Z,90.30
2017-08-18T06:31:08.837Z,90.61
2017-08-18T06:33:36.645Z,90.64
2017-08-18T06:36:04.569Z,90.69
2017-08-18T06:38:32.380Z,90.51
2017-08-18T06:41:00.251Z,90.33
2017-08-18T06:43:28.050Z,90.14
2017-08-18T06:45:55.901Z,89.92
2017-08-18T06:48:23.704Z,89.72
2017-08-18T06:50:51.570Z,89.54
2017-08-18T06:53:19.295Z,89.62
2017-08-18T06:55:47.161Z,89.59
2017-08-18T06:58:15.006Z,89.25
2017-08-18T07:00:42.758Z,89.03
2017-08-18T07:03:10.476Z,88.50
2017-08-18T07:05:38.236Z,88.00
2017-08-18T07:08:06.004Z,87.75
2017-08-18T07:10:33.718Z,87.70
2017-08-18T07:13:01.468Z,87.55
2017-08-18T07:15:29.200Z,87.81
2017-08-18T07:17:56.966Z,87.17
2017-08-18T07:20:24.690Z,86.88
2017-08-18T07:22:52.472Z,85.87
2017-08-18T07:25:20.188Z,85.15
2017-08-18T07:27:47.973Z,86.47
2017-08-18T07:30:15.702Z,84.54
2017-08-18T07:32:43.477Z,83.99
2017-08-18T07:35:11.747Z,83.21
2017-08-18T07:37:39.690Z,82.47
2017-08-18T07:40:07.381Z,83.10
2017-08-18T07:42:35.091Z,82.26
2017-08-18T07:45:02.899Z,79.70
2017-08-18T07:47:30.636Z,79.42
2017-08-18T07:49:58.417Z,79.04
2017-08-18T07:52:26.139Z,79.18
2017-08-18T07:54:53.894Z,79.49
2017-08-18T07:57:21.632Z,80.60
2017-08-18T07:59:49.423Z,79.87
2017-08-18T08:02:17.172Z,80.96
2017-08-18T08:04:44.932Z,80.40
2017-08-18T08:07:12.634Z,80.13
2017-08-18T08:09:40.361Z,79.75
2017-08-18T08:12:08.113Z,79.30
2017-08-18T08:14:35.846Z,78.47
2017-08-18T08:17:03.601Z,78.62
2017-08-18T08:19:31.351Z,78.18
2017-08-18T08:21:59.121Z,77.95
2017-08-18T08:24:26.818Z,78.08
2017-08-18T08:26:54.535Z,78.09
2017-08-18T08:29:22.268Z,78.57
2017-08-18T08:31:50.038Z,78.35
2017-08-18T08:34:17.752Z,79.09
2017-08-18T08:36:45.470Z,79.56
2017-08-18T08:39:13.238Z,79.31
2017-08-18T08:41:40.984Z,79.97
2017-08-18T08:44:08.703Z,78.86
2017-08-18T08:46:36.421Z,79.20
2017-08-18T08:49:04.176Z,79.97
2017-08-18T08:51:31.966Z,78.92
2017-08-18T08:53:59.713Z,79.24
2017-08-18T08:56:27.528Z,79.67
2017-08-18T08:58:55.291Z,80.06
2017-08-18T09:01:23.009Z,79.77
2017-08-18T09:03:50.786Z,79.65
2017-08-18T09:06:18.572Z,79.92
2017-08-18T09:08:46.333Z,78.70
2017-08-18T09:11:14.106Z,78.75
2017-08-18T09:13:41.834Z,78.79
2017-08-18T09:16:09.584Z,77.67
2017-08-18T09:18:37.343Z,77.09
2017-08-18T09:21:05.116Z,76.72
2017-08-18T09:23:32.840Z,77.31
2017-08-18T09:26:00.720Z,76.93
2017-08-18T09:28:28.555Z,75.84
2017-08-18T09:30:56.388Z,75.77
2017-08-18T09:33:24.220Z,74.27
2017-08-18T09:35:52.122Z,73.92
2017-08-18T09:38:19.992Z,73.26
2017-08-18T09:40:47.936Z,74.00
2017-08-18T09:43:15.810Z,72.38
2017-08-18T09:45:43.661Z,73.42
2017-08-18T09:48:23.174Z,73.32
2017-08-18T09:51:02.584Z,74.04
2017-08-18T09:56:45.992Z,73.27
2017-08-18T09:59:13.999Z,73.40
2017-08-18T10:01:41.718Z,72.93
2017-08-18T10:04:09.588Z,74.37
2017-08-18T10:06:37.427Z,74.24
2017-08-18T10:09:05.463Z,74.55
2017-08-18T10:11:33.295Z,74.09
2017-08-18T10:14:01.258Z,75.05
2017-08-18T10:16:29.110Z,73.71
2017-08-18T10:18:57.004Z,73.09
2017-08-18T10:21:24.918Z,72.73
2017-08-18T10:23:52.640Z,73.68
2017-08-18T10:26:20.558Z,75.07
2017-08-18T10:28:48.453Z,75.24
2017-08-18T10:31:16.319Z,74.22
2017-08-18T10:33:44.222Z,74.08
2017-08-18T10:36:12.133Z,73.10
2017-08-18T10:38:39.958Z,73.14
2017-08-18T10:41:07.715Z,72.80
2017-08-18T10:43:35.443Z,72.97
2017-08-18T10:46:03.216Z,73.02
2017-08-18T10:48:30.984Z,73.83
2017-08-18T10:50:58.770Z,73.32
2017-08-18T10:53:26.589Z,73.02
2017-08-18T10:55:54.472Z,71.97
2017-08-18T10:58:22.373Z,73.42
2017-08-18T11:03:33.232Z,71.75
2017-08-18T11:06:01.131Z,72.29
2017-08-18T11:08:29.066Z,72.70
2017-08-18T11:10:56.927Z,72.60
2017-08-18T11:13:24.839Z,73.17
2017-08-18T11:15:52.689Z,72.24
2017-08-18T11:18:20.521Z,72.57
2017-08-18T11:20:48.370Z,72.72
2017-08-18T11:23:16.282Z,71.91
2017-08-18T11:25:44.149Z,72.40
2017-08-18T11:28:12.159Z,72.90
2017-08-18T11:30:40.006Z,73.30
2017-08-18T11:33:07.932Z,74.18
2017-08-18T11:35:35.800Z,73.24
2017-08-18T11:38:03.664Z,73.32
2017-08-18T11:40:31.540Z,74.05
2017-08-18T11:42:59.509Z,75.33
2017-08-18T11:45:27.391Z,76.05
2017-08-18T11:47:55.283Z,75.09
2017-08-18T11:50:23.135Z,74.84
2017-08-18T11:52:50.943Z,75.71
2017-08-18T11:55:18.836Z,75.77
2017-08-18T11:57:46.682Z,76.24
2017-08-18T12:00:14.667Z,77.66
2017-08-18T12:02:42.529Z,79.59
2017-08-18T12:05:10.481Z,80.78
2017-08-18T12:07:38.293Z,81.24
2017-08-18T12:10:06.254Z,82.19
2017-08-18T12:12:34.069Z,81.97
2017-08-18T12:15:02.038Z,82.53
2017-08-18T12:17:29.766Z,82.93
2017-08-18T12:19:57.477Z,82.77
2017-08-18T12:22:25.363Z,83.04
2017-08-18T12:24:53.212Z,83.02
2017-08-18T12:27:21.118Z,82.77
2017-08-18T12:29:48.999Z,82.25
2017-08-18T12:32:16.935Z,82.89
2017-08-18T12:34:44.785Z,82.14
2017-08-18T12:37:12.745Z,82.94
2017-08-18T12:39:40.652Z,83.70
2017-08-18T12:42:08.574Z,84.56
2017-08-18T12:44:36.483Z,85.10
2017-08-18T12:47:04.356Z,85.40
2017-08-18T12:49:32.126Z,87.16
2017-08-18T12:51:59.884Z,86.95
2017-08-18T12:54:27.764Z,87.32
2017-08-18T12:56:55.677Z,87.69
2017-08-18T12:59:23.548Z,87.16
2017-08-18T13:01:51.383Z,87.69
2017-08-18T13:04:19.254Z,87.96
2017-08-18T13:06:47.102Z,88.17
2017-08-18T13:09:15.031Z,87.66
2017-08-18T13:11:43.300Z,87.94
2017-08-18T13:14:11.076Z,87.80
2017-08-18T13:16:39.158Z,87.87
2017-08-18T13:19:07.105Z,86.03
2017-08-18T13:21:34.958Z,86.85
2017-08-18T13:24:02.883Z,87.03
2017-08-18T13:26:30.714Z,86.56
2017-08-18T13:28:58.415Z,85.81
2017-08-18T13:31:26.313Z,85.83
2017-08-18T13:33:56.007Z,86.17
2017-08-18T13:36:23.981Z,86.74
2017-08-18T13:38:51.851Z,86.83
2017-08-18T13:41:19.667Z,87.40
2017-08-18T13:43:47.550Z,87.72
2017-08-18T13:46:15.487Z,87.80
2017-08-18T13:48:43.222Z,87.47
2017-08-18T13:51:11.003Z,86.90
2017-08-18T13:53:38.792Z,87.43
2017-08-18T13:56:06.560Z,87.01
2017-08-18T13:58:34.285Z,85.91
2017-08-18T14:01:02.016Z,85.60
2017-08-18T14:03:29.786Z,85.90
2017-08-18T14:05:57.592Z,85.81
2017-08-18T14:08:25.543Z,86.83
2017-08-18T14:10:53.262Z,86.30
2017-08-18T14:13:21.013Z,85.84
2017-08-18T14:15:48.729Z,87.02
2017-08-18T14:18:16.465Z,86.58
2017-08-18T14:20:44.157Z,86.31
2017-08-18T14:23:11.908Z,84.57
2017-08-18T14:25:45.200Z,83.72
2017-08-18T14:28:12.976Z,83.25
2017-08-18T14:30:40.678Z,83.43
2017-08-18T14:33:08.398Z,83.73
2017-08-18T14:35:36.181Z,82.75
2017-08-18T14:38:03.896Z,83.26
2017-08-18T14:40:31.654Z,83.49
2017-08-18T14:42:59.391Z,84.20
2017-08-18T14:45:27.166Z,84.14
2017-08-18T14:47:54.955Z,83.71
2017-08-18T14:50:22.717Z,83.74
2017-08-18T14:52:50.472Z,83.91
2017-08-18T14:55:18.219Z,83.89
2017-08-18T14:57:45.926Z,84.85
2017-08-18T15:00:13.668Z,84.83
2017-08-18T15:02:41.389Z,84.67
2017-08-18T15:05:09.137Z,84.33
2017-08-18T15:07:36.839Z,83.35
2017-08-18T15:10:04.527Z,83.60
2017-08-18T15:12:32.304Z,84.00
2017-08-18T15:15:00.204Z,83.12
2017-08-18T15:17:28.345Z,83.21
2017-08-18T15:19:56.141Z,83.32
2017-08-18T15:22:24.102Z,84.09
2017-08-18T15:24:51.973Z,82.83
2017-08-18T15:27:19.741Z,83.13
2017-08-18T15:29:47.440Z,83.14
2017-08-18T15:32:15.217Z,82.48
2017-08-18T15:34:43.062Z,82.01
2017-08-18T15:37:11.000Z,81.96
2017-08-18T15:39:38.835Z,81.36
2017-08-18T15:42:06.780Z,81.33
2017-08-18T15:44:34.674Z,81.89
2017-08-18T15:47:02.538Z,82.92
2017-08-18T15:49:30.430Z,82.92
2017-08-18T15:51:58.273Z,83.00
2017-08-18T15:54:26.233Z,82.50
2017-08-18T15:56:54.057Z,82.56
2017-08-18T15:59:21.990Z,82.94
2017-08-18T16:01:49.864Z,82.70
2017-08-18T16:04:17.755Z,83.07
2017-08-18T16:06:45.668Z,84.28
2017-08-18T16:09:13.558Z,84.99
2017-08-18T16:11:41.392Z,84.14
2017-08-18T16:14:09.166Z,84.78
2017-08-18T16:16:37.057Z,84.58
2017-08-18T16:19:04.797Z,84.58
2017-08-18T16:21:32.633Z,84.89
2017-08-18T16:24:00.361Z,85.52
2017-08-18T16:26:28.251Z,86.01
2017-08-18T16:28:56.141Z,85.57
2017-08-18T16:31:24.022Z,85.45
2017-08-18T16:33:51.888Z,84.83
2017-08-18T16:36:19.818Z,84.36
2017-08-18T16:38:47.646Z,84.95
2017-08-18T16:41:15.584Z,84.75
2017-08-18T16:43:43.418Z,84.97
2017-08-18T16:46:11.337Z,85.25
2017-08-18T16:48:39.164Z,85.89
2017-08-18T16:51:07.112Z,85.93
2017-08-18T16:53:34.970Z,85.78
2017-08-18T16:56:02.873Z,85.95
2017-08-18T16:58:30.596Z,86.65
2017-08-18T17:00:58.396Z,86.59
2017-08-18T17:03:26.238Z,86.21
2017-08-18T17:05:54.042Z,85.92
2017-08-18T17:08:21.930Z,86.13
2017-08-18T17:10:49.658Z,86.63
2017-08-18T17:13:17.440Z,86.81
2017-08-18T17:15:45.259Z,86.84
2017-08-18T17:18:13.027Z,86.67
2017-08-18T17:20:40.772Z,86.72
2017-08-18T17:23:08.586Z,86.83
2017-08-18T17:25:36.337Z,86.52
2017-08-18T17:28:04.078Z,87.02
2017-08-18T17:30:31.834Z,87.20
2017-08-18T17:32:59.646Z,87.32
2017-08-18T17:35:27.428Z,88.06
2017-08-18T17:37:55.220Z,88.30
2017-08-18T17:40:22.968Z,88.84
2017-08-18T17:42:50.752Z,89.03
2017-08-18T17:45:18.593Z,89.29
2017-08-18T17:47:46.376Z,89.46
2017-08-18T17:50:14.249Z,89.93
2017-08-18T17:52:42.029Z,90.10
2017-08-18T17:55:09.746Z,90.51
2017-08-18T17:57:37.589Z,90.68
2017-08-18T18:00:05.406Z,90.84
2017-08-18T18:02:33.281Z,91.06
2017-08-18T18:05:01.091Z,91.33
2017-08-18T18:07:28.933Z,91.61
2017-08-18T18:09:56.814Z,91.78
2017-08-18T18:12:24.653Z,91.91
2017-08-18T18:14:52.469Z,92.12
2017-08-18T18:17:20.314Z,92.40
2017-08-18T18:19:48.085Z,92.59
2017-08-18T18:22:15.864Z,92.77
2017-08-18T18:24:43.641Z,92.99
2017-08-18T18:27:11.591Z,93.11
2017-08-18T18:29:39.488Z,93.23
2017-08-18T18:32:07.349Z,93.27
2017-08-18T18:34:35.188Z,93.32
2017-08-18T18:37:02.981Z,93.36
2017-08-18T18:39:30.832Z,93.42
2017-08-18T18:41:58.561Z,93.47
2017-08-18T18:44:26.403Z,93.59
2017-08-18T18:46:54.197Z,93.66
2017-08-18T18:49:21.993Z,93.75
2017-08-18T18:51:49.844Z,93.79
2017-08-18T18:54:17.657Z,93.85
2017-08-18T18:56:45.477Z,93.85
2017-08-18T18:59:13.247Z,93.90
2017-08-18T19:01:41.072Z,93.94
2017-08-18T19:04:08.872Z,93.99
2017-08-18T19:06:36.694Z,94.02
2017-08-18T19:09:04.508Z,94.10
2017-08-18T19:11:32.345Z,94.18
2017-08-18T19:14:00.133Z,94.22
2017-08-18T19:16:27.977Z,94.27
2017-08-18T19:18:55.677Z,94.34
2017-08-18T19:21:23.487Z,94.37
2017-08-18T19:23:51.273Z,94.49
2017-08-18T19:26:19.076Z,94.56
2017-08-18T19:28:46.993Z,94.59
2017-08-18T19:31:14.798Z,94.61
2017-08-18T19:33:42.640Z,94.65
2017-08-18T19:36:10.425Z,94.68
2017-08-18T19:38:38.241Z,94.74
2017-08-18T19:41:06.056Z,94.77
2017-08-18T19:43:33.920Z,94.75
2017-08-18T19:46:01.716Z,94.72
2017-08-18T19:48:29.531Z,94.65
2017-08-18T19:50:57.312Z,94.64
2017-08-18T19:53:25.155Z,94.29
2017-08-18T19:55:52.964Z,93.96
2017-08-18T19:58:20.801Z,93.91
2017-08-18T20:00:48.604Z,94.02
2017-08-18T20:03:16.394Z,94.12
2017-08-18T20:05:44.221Z,94.25
2017-08-18T20:08:11.997Z,94.27
2017-08-18T20:10:39.840Z,94.29
2017-08-18T20:13:07.594Z,94.32
2017-08-18T20:15:35.353Z,94.34
2017-08-18T20:18:03.083Z,94.35
2017-08-18T20:20:30.856Z,94.36
2017-08-18T20:22:58.559Z,94.40
2017-08-18T20:25:26.377Z,94.34
2017-08-18T20:27:54.108Z,94.33
2017-08-18T20:30:21.881Z,94.31
2017-08-18T20:32:49.596Z,94.29
2017-08-18T20:35:17.297Z,94.29
2017-08-18T20:37:45.072Z,94.31
2017-08-18T20:40:12.768Z,94.34
2017-08-18T20:42:40.529Z,94.38
2017-08-18T20:45:08.251Z,94.35
2017-08-18T20:47:36.002Z,94.36
2017-08-18T20:50:03.739Z,94.43
2017-08-18T20:52:31.513Z,94.49
2017-08-18T20:54:59.204Z,94.49
2017-08-18T20:57:26.986Z,94.52
2017-08-18T20:59:54.679Z,94.55
2017-08-18T21:02:22.409Z,94.54
2017-08-18T21:04:50.164Z,94.59
2017-08-18T21:07:17.871Z,94.62
2017-08-18T21:09:45.642Z,94.60
2017-08-18T21:12:13.356Z,94.57
2017-08-18T21:14:41.112Z,94.57
2017-08-18T21:17:08.827Z,94.58
2017-08-18T21:19:36.605Z,94.58
2017-08-18T21:22:04.318Z,94.66
2017-08-18T21:24:32.033Z,94.72
2017-08-18T21:26:59.860Z,94.73
2017-08-18T21:29:27.553Z,94.73
2017-08-18T21:31:55.327Z,94.66
2017-08-18T21:34:23.041Z,94.65
2017-08-18T21:36:50.782Z,94.54
2017-08-18T21:39:18.495Z,94.39
2017-08-18T21:41:46.225Z,94.26
2017-08-18T21:44:13.938Z,94.21
2017-08-18T21:46:41.692Z,94.22
2017-08-18T21:49:09.372Z,94.26
2017-08-18T21:51:37.217Z,94.32
2017-08-18T21:54:04.999Z,94.42
2017-08-18T21:56:32.733Z,94.47
2017-08-18T21:59:00.511Z,94.52
2017-08-18T22:01:28.277Z,94.59
2017-08-18T22:03:56.062Z,94.63
2017-08-18T22:06:23.760Z,94.69
2017-08-18T22:08:51.549Z,94.72
2017-08-18T22:11:19.287Z,94.74
2017-08-18T22:13:47.081Z,94.74
2017-08-18T22:16:14.788Z,94.78
2017-08-18T22:18:42.587Z,94.80
2017-08-18T22:21:10.452Z,94.84
2017-08-18T22:23:38.224Z,94.84
2017-08-18T22:26:05.996Z,94.85
2017-08-18T22:28:33.818Z,94.88
2017-08-18T22:31:01.588Z,94.88
2017-08-18T22:33:29.373Z,94.89
2017-08-18T22:35:57.193Z,94.86
2017-08-18T22:38:24.973Z,94.89
2017-08-18T22:40:52.825Z,94.88
2017-08-18T22:43:20.519Z,94.87
2017-08-18T22:45:48.305Z,94.84
2017-08-18T22:48:16.137Z,94.81
2017-08-18T22:50:43.937Z,94.80
2017-08-18T22:53:11.765Z,94.78
2017-08-18T22:55:39.467Z,94.68
2017-08-18T22:58:07.285Z,94.63
2017-08-18T23:00:35.070Z,94.67
2017-08-18T23:03:02.905Z,94.73
2017-08-18T23:05:30.730Z,94.71
2017-08-18T23:07:58.517Z,94.69
2017-08-18T23:10:26.333Z,94.60
2017-08-18T23:12:54.130Z,94.51
2017-08-18T23:15:21.880Z,94.38
2017-08-18T23:17:49.650Z,94.40
2017-08-18T23:20:17.490Z,94.44
2017-08-18T23:22:45.269Z,94.52
2017-08-18T23:25:13.094Z,94.50
2017-08-18T23:27:40.836Z,94.51
2017-08-18T23:30:08.634Z,94.50
2017-08-18T23:32:36.484Z,94.52
2017-08-18T23:35:04.264Z,94.57
2017-08-18T23:37:32.112Z,94.65
2017-08-18T23:39:59.904Z,94.71
2017-08-18T23:42:27.735Z,94.73
2017-08-18T23:44:55.540Z,94.79
2017-08-18T23:47:23.387Z,94.82
2017-08-18T23:49:51.176Z,94.87
2017-08-18T23:52:18.951Z,94.88
2017-08-18T23:54:46.784Z,94.91
2017-08-18T23:57:14.567Z,94.94
2017-08-18T23:59:42.346Z,95.02
